sensor_id;sensor_type;location;lat;lon;timestamp;temperature;humidity
27226;DHT22;14732;51.074;3.788;2023-12-22T00:02:19;10.20;99.90
27226;DHT22;14732;51.074;3.788;2023-12-22T00:04:45;10.10;99.90
27226;DHT22;14732;51.074;3.788;2023-12-22T00:07:11;10.00;99.90
27226;DHT22;14732;51.074;3.788;2023-12-22T00:09:37;9.80;99.90
27226;DHT22;14732;51.074;3.788;2023-12-22T00:12:03;9.60;99.90
27226;DHT22;14732;51.074;3.788;2023-12-22T00:14:29;9.50;99.90
27226;DHT22;14732;51.074;3.788;2023-12-22T00:16:55;9.50;99.90
27226;DHT22;14732;51.074;3.788;2023-12-22T00:19:20;9.50;99.90
27226;DHT22;14732;51.074;3.788;2023-12-22T00:21:46;9.50;99.90
27226;DHT22;14732;51.074;3.788;2023-12-22T00:24:11;9.40;99.90
27226;DHT22;14732;51.074;3.788;2023-12-22T00:26:37;9.40;99.90
27226;DHT22;14732;51.074;3.788;2023-12-22T00:29:06;9.40;99.90
27226;DHT22;14732;51.074;3.788;2023-12-22T00:31:32;9.40;99.90
27226;DHT22;14732;51.074;3.788;2023-12-22T00:34:00;9.40;99.90
27226;DHT22;14732;51.074;3.788;2023-12-22T00:36:35;9.40;99.90
27226;DHT22;14732;51.074;3.788;2023-12-22T00:39:00;9.50;99.90
27226;DHT22;14732;51.074;3.788;2023-12-22T00:41:26;9.50;99.90
27226;DHT22;14732;51.074;3.788;2023-12-22T00:43:55;9.60;99.90
27226;DHT22;14732;51.074;3.788;2023-12-22T00:46:20;9.70;99.90
27226;DHT22;14732;51.074;3.788;2023-12-22T00:48:49;9.80;99.90
27226;DHT22;14732;51.074;3.788;2023-12-22T00:51:14;9.80;99.90
27226;DHT22;14732;51.074;3.788;2023-12-22T00:53:41;9.80;99.90
27226;DHT22;14732;51.074;3.788;2023-12-22T00:56:08;9.90;99.90
27226;DHT22;14732;51.074;3.788;2023-12-22T00:58:33;9.90;99.90
27226;DHT22;14732;51.074;3.788;2023-12-22T01:00:59;10.00;99.90
27226;DHT22;14732;51.074;3.788;2023-12-22T01:03:25;10.10;99.90
27226;DHT22;14732;51.074;3.788;2023-12-22T01:05:50;10.10;99.90
27226;DHT22;14732;51.074;3.788;2023-12-22T01:08:16;10.10;99.90
27226;DHT22;14732;51.074;3.788;2023-12-22T01:10:42;10.10;99.90
27226;DHT22;14732;51.074;3.788;2023-12-22T01:13:07;10.10;99.90
27226;DHT22;14732;51.074;3.788;2023-12-22T01:15:33;10.10;99.90
27226;DHT22;14732;51.074;3.788;2023-12-22T01:17:58;10.10;99.90
27226;DHT22;14732;51.074;3.788;2023-12-22T01:20:24;10.10;99.90
27226;DHT22;14732;51.074;3.788;2023-12-22T01:22:50;10.10;99.90
27226;DHT22;14732;51.074;3.788;2023-12-22T01:25:15;10.20;99.90
27226;DHT22;14732;51.074;3.788;2023-12-22T01:27:41;10.20;99.90
27226;DHT22;14732;51.074;3.788;2023-12-22T01:30:07;10.10;99.90
27226;DHT22;14732;51.074;3.788;2023-12-22T01:32:33;10.10;99.90
27226;DHT22;14732;51.074;3.788;2023-12-22T01:35:00;10.10;99.90
27226;DHT22;14732;51.074;3.788;2023-12-22T01:37:29;10.10;99.90
27226;DHT22;14732;51.074;3.788;2023-12-22T01:39:55;10.10;99.90
27226;DHT22;14732;51.074;3.788;2023-12-22T01:42:21;10.30;99.90
27226;DHT22;14732;51.074;3.788;2023-12-22T01:44:46;10.30;99.90
27226;DHT22;14732;51.074;3.788;2023-12-22T01:47:13;10.30;99.90
27226;DHT22;14732;51.074;3.788;2023-12-22T01:49:39;10.30;99.90
27226;DHT22;14732;51.074;3.788;2023-12-22T01:52:04;10.30;99.90
27226;DHT22;14732;51.074;3.788;2023-12-22T01:54:30;10.30;99.90
27226;DHT22;14732;51.074;3.788;2023-12-22T01:56:56;10.30;99.90
27226;DHT22;14732;51.074;3.788;2023-12-22T01:59:23;10.30;99.90
27226;DHT22;14732;51.074;3.788;2023-12-22T02:01:48;10.30;99.90
27226;DHT22;14732;51.074;3.788;2023-12-22T02:04:15;10.30;99.90
27226;DHT22;14732;51.074;3.788;2023-12-22T02:06:41;10.20;99.90
27226;DHT22;14732;51.074;3.788;2023-12-22T02:09:07;10.20;99.90
27226;DHT22;14732;51.074;3.788;2023-12-22T02:11:33;10.20;99.90
27226;DHT22;14732;51.074;3.788;2023-12-22T02:13:59;10.20;99.90
27226;DHT22;14732;51.074;3.788;2023-12-22T02:16:55;10.10;99.90
27226;DHT22;14732;51.074;3.788;2023-12-22T02:19:43;10.20;99.90
27226;DHT22;14732;51.074;3.788;2023-12-22T02:22:11;10.20;99.90
27226;DHT22;14732;51.074;3.788;2023-12-22T02:24:37;10.10;99.90
27226;DHT22;14732;51.074;3.788;2023-12-22T02:27:04;10.00;99.90
27226;DHT22;14732;51.074;3.788;2023-12-22T02:29:46;10.00;99.90
27226;DHT22;14732;51.074;3.788;2023-12-22T02:32:14;9.90;99.90
27226;DHT22;14732;51.074;3.788;2023-12-22T02:34:43;9.90;99.90
27226;DHT22;14732;51.074;3.788;2023-12-22T02:37:10;10.00;99.90
27226;DHT22;14732;51.074;3.788;2023-12-22T02:39:36;10.00;99.90
27226;DHT22;14732;51.074;3.788;2023-12-22T02:42:04;9.90;99.90
27226;DHT22;14732;51.074;3.788;2023-12-22T02:44:31;9.90;99.90
27226;DHT22;14732;51.074;3.788;2023-12-22T02:46:57;10.00;99.90
27226;DHT22;14732;51.074;3.788;2023-12-22T02:49:22;10.00;99.90
27226;DHT22;14732;51.074;3.788;2023-12-22T02:51:48;10.00;99.90
27226;DHT22;14732;51.074;3.788;2023-12-22T02:54:14;9.90;99.90
27226;DHT22;14732;51.074;3.788;2023-12-22T02:56:39;9.80;99.90
27226;DHT22;14732;51.074;3.788;2023-12-22T02:59:05;9.70;99.90
27226;DHT22;14732;51.074;3.788;2023-12-22T03:01:30;9.60;99.90
27226;DHT22;14732;51.074;3.788;2023-12-22T03:03:56;9.60;99.90
27226;DHT22;14732;51.074;3.788;2023-12-22T03:06:22;9.60;99.90
27226;DHT22;14732;51.074;3.788;2023-12-22T03:08:47;9.60;99.90
27226;DHT22;14732;51.074;3.788;2023-12-22T03:11:13;9.50;99.90
27226;DHT22;14732;51.074;3.788;2023-12-22T03:13:38;9.50;99.90
27226;DHT22;14732;51.074;3.788;2023-12-22T03:16:08;9.60;99.90
27226;DHT22;14732;51.074;3.788;2023-12-22T03:18:33;9.60;99.90
27226;DHT22;14732;51.074;3.788;2023-12-22T03:20:59;9.50;99.90
27226;DHT22;14732;51.074;3.788;2023-12-22T03:23:25;9.60;99.90
27226;DHT22;14732;51.074;3.788;2023-12-22T03:25:50;9.50;99.90
27226;DHT22;14732;51.074;3.788;2023-12-22T03:28:16;9.50;99.90
27226;DHT22;14732;51.074;3.788;2023-12-22T03:30:42;9.40;99.90
27226;DHT22;14732;51.074;3.788;2023-12-22T03:33:07;9.40;99.90
27226;DHT22;14732;51.074;3.788;2023-12-22T03:35:33;9.40;99.90
27226;DHT22;14732;51.074;3.788;2023-12-22T03:37:58;9.50;99.90
27226;DHT22;14732;51.074;3.788;2023-12-22T03:40:25;9.50;99.90
27226;DHT22;14732;51.074;3.788;2023-12-22T03:42:50;9.40;99.90
27226;DHT22;14732;51.074;3.788;2023-12-22T03:45:16;9.40;99.90
27226;DHT22;14732;51.074;3.788;2023-12-22T03:47:42;9.40;99.90
27226;DHT22;14732;51.074;3.788;2023-12-22T03:50:07;9.60;99.90
27226;DHT22;14732;51.074;3.788;2023-12-22T03:52:34;9.60;99.90
27226;DHT22;14732;51.074;3.788;2023-12-22T03:54:59;9.70;99.90
27226;DHT22;14732;51.074;3.788;2023-12-22T03:57:25;9.70;99.90
27226;DHT22;14732;51.074;3.788;2023-12-22T03:59:50;9.60;99.90
27226;DHT22;14732;51.074;3.788;2023-12-22T04:02:16;9.60;99.90
27226;DHT22;14732;51.074;3.788;2023-12-22T04:04:42;9.70;99.90
27226;DHT22;14732;51.074;3.788;2023-12-22T04:07:08;9.50;99.90
27226;DHT22;14732;51.074;3.788;2023-12-22T04:09:33;9.40;99.90
27226;DHT22;14732;51.074;3.788;2023-12-22T04:11:59;9.40;99.90
27226;DHT22;14732;51.074;3.788;2023-12-22T04:14:25;9.20;99.90
27226;DHT22;14732;51.074;3.788;2023-12-22T04:16:53;9.10;99.90
27226;DHT22;14732;51.074;3.788;2023-12-22T04:19:19;9.10;99.90
27226;DHT22;14732;51.074;3.788;2023-12-22T04:21:44;9.10;99.90
27226;DHT22;14732;51.074;3.788;2023-12-22T04:24:10;9.10;99.90
27226;DHT22;14732;51.074;3.788;2023-12-22T04:26:36;9.20;99.90
27226;DHT22;14732;51.074;3.788;2023-12-22T04:29:01;9.30;99.90
27226;DHT22;14732;51.074;3.788;2023-12-22T04:31:27;9.40;99.90
27226;DHT22;14732;51.074;3.788;2023-12-22T04:33:53;9.40;99.90
27226;DHT22;14732;51.074;3.788;2023-12-22T04:36:18;9.50;99.90
27226;DHT22;14732;51.074;3.788;2023-12-22T04:38:44;9.50;99.90
27226;DHT22;14732;51.074;3.788;2023-12-22T04:41:10;9.40;99.90
27226;DHT22;14732;51.074;3.788;2023-12-22T04:43:35;9.50;99.90
27226;DHT22;14732;51.074;3.788;2023-12-22T04:46:01;9.50;99.90
27226;DHT22;14732;51.074;3.788;2023-12-22T04:48:26;9.60;99.90
27226;DHT22;14732;51.074;3.788;2023-12-22T04:50:56;9.60;99.90
27226;DHT22;14732;51.074;3.788;2023-12-22T04:53:24;9.60;99.90
27226;DHT22;14732;51.074;3.788;2023-12-22T04:55:49;9.60;99.90
27226;DHT22;14732;51.074;3.788;2023-12-22T04:58:23;9.70;99.90
27226;DHT22;14732;51.074;3.788;2023-12-22T05:00:49;9.70;99.90
27226;DHT22;14732;51.074;3.788;2023-12-22T05:03:15;9.80;99.90
27226;DHT22;14732;51.074;3.788;2023-12-22T05:05:40;9.80;99.90
27226;DHT22;14732;51.074;3.788;2023-12-22T05:08:12;9.70;99.90
27226;DHT22;14732;51.074;3.788;2023-12-22T05:10:47;9.80;99.90
27226;DHT22;14732;51.074;3.788;2023-12-22T05:13:12;9.70;99.90
27226;DHT22;14732;51.074;3.788;2023-12-22T05:15:38;9.80;99.90
27226;DHT22;14732;51.074;3.788;2023-12-22T05:18:04;9.80;99.90
27226;DHT22;14732;51.074;3.788;2023-12-22T05:20:29;9.80;99.90
27226;DHT22;14732;51.074;3.788;2023-12-22T05:22:55;9.80;99.90
27226;DHT22;14732;51.074;3.788;2023-12-22T05:25:21;9.90;99.90
27226;DHT22;14732;51.074;3.788;2023-12-22T05:27:47;9.90;99.90
27226;DHT22;14732;51.074;3.788;2023-12-22T05:30:13;10.00;99.90
27226;DHT22;14732;51.074;3.788;2023-12-22T05:32:38;10.10;99.90
27226;DHT22;14732;51.074;3.788;2023-12-22T05:35:05;10.20;99.90
27226;DHT22;14732;51.074;3.788;2023-12-22T05:37:31;10.20;99.90
27226;DHT22;14732;51.074;3.788;2023-12-22T05:39:56;10.20;99.90
27226;DHT22;14732;51.074;3.788;2023-12-22T05:42:22;10.10;99.90
27226;DHT22;14732;51.074;3.788;2023-12-22T05:44:47;10.20;99.90
27226;DHT22;14732;51.074;3.788;2023-12-22T05:47:16;10.20;99.90
27226;DHT22;14732;51.074;3.788;2023-12-22T05:49:42;10.20;99.90
27226;DHT22;14732;51.074;3.788;2023-12-22T05:52:07;10.30;99.90
27226;DHT22;14732;51.074;3.788;2023-12-22T05:54:35;10.30;99.90
27226;DHT22;14732;51.074;3.788;2023-12-22T05:57:01;10.30;99.90
27226;DHT22;14732;51.074;3.788;2023-12-22T05:59:26;10.40;99.90
27226;DHT22;14732;51.074;3.788;2023-12-22T06:01:56;10.30;99.90
27226;DHT22;14732;51.074;3.788;2023-12-22T06:04:21;10.20;99.90
27226;DHT22;14732;51.074;3.788;2023-12-22T06:06:47;10.10;99.90
27226;DHT22;14732;51.074;3.788;2023-12-22T06:09:12;10.00;99.90
27226;DHT22;14732;51.074;3.788;2023-12-22T06:11:39;10.10;99.90
27226;DHT22;14732;51.074;3.788;2023-12-22T06:14:05;10.20;99.90
27226;DHT22;14732;51.074;3.788;2023-12-22T06:16:31;10.20;99.90
27226;DHT22;14732;51.074;3.788;2023-12-22T06:18:57;10.20;99.90
27226;DHT22;14732;51.074;3.788;2023-12-22T06:21:22;10.10;99.90
27226;DHT22;14732;51.074;3.788;2023-12-22T06:23:48;10.00;99.90
27226;DHT22;14732;51.074;3.788;2023-12-22T06:26:14;10.00;99.90
27226;DHT22;14732;51.074;3.788;2023-12-22T06:28:40;9.90;99.90
27226;DHT22;14732;51.074;3.788;2023-12-22T06:31:06;9.90;99.90
27226;DHT22;14732;51.074;3.788;2023-12-22T06:33:32;10.00;99.90
27226;DHT22;14732;51.074;3.788;2023-12-22T06:35:58;10.00;99.90
27226;DHT22;14732;51.074;3.788;2023-12-22T06:38:23;9.90;99.90
27226;DHT22;14732;51.074;3.788;2023-12-22T06:40:49;9.90;99.90
27226;DHT22;14732;51.074;3.788;2023-12-22T06:43:15;9.90;99.90
27226;DHT22;14732;51.074;3.788;2023-12-22T06:45:41;9.90;99.90
27226;DHT22;14732;51.074;3.788;2023-12-22T06:48:07;10.00;99.90
27226;DHT22;14732;51.074;3.788;2023-12-22T06:50:35;10.00;99.90
27226;DHT22;14732;51.074;3.788;2023-12-22T06:53:02;10.00;99.90
27226;DHT22;14732;51.074;3.788;2023-12-22T06:55:28;10.10;99.90
27226;DHT22;14732;51.074;3.788;2023-12-22T06:57:55;10.00;99.90
27226;DHT22;14732;51.074;3.788;2023-12-22T07:00:21;10.00;99.90
27226;DHT22;14732;51.074;3.788;2023-12-22T07:02:46;10.00;99.90
27226;DHT22;14732;51.074;3.788;2023-12-22T07:07:47;10.00;99.90
27226;DHT22;14732;51.074;3.788;2023-12-22T07:10:12;10.00;99.90
27226;DHT22;14732;51.074;3.788;2023-12-22T07:12:38;10.10;99.90
27226;DHT22;14732;51.074;3.788;2023-12-22T07:15:07;10.20;99.90
27226;DHT22;14732;51.074;3.788;2023-12-22T07:17:33;10.30;99.90
27226;DHT22;14732;51.074;3.788;2023-12-22T07:19:59;10.20;99.90
27226;DHT22;14732;51.074;3.788;2023-12-22T07:22:25;10.10;99.90
27226;DHT22;14732;51.074;3.788;2023-12-22T07:24:50;10.10;99.90
27226;DHT22;14732;51.074;3.788;2023-12-22T07:27:18;10.10;99.90
27226;DHT22;14732;51.074;3.788;2023-12-22T07:29:44;10.20;99.90
27226;DHT22;14732;51.074;3.788;2023-12-22T07:32:09;10.20;99.90
27226;DHT22;14732;51.074;3.788;2023-12-22T07:34:35;10.20;99.90
27226;DHT22;14732;51.074;3.788;2023-12-22T07:37:01;10.20;99.90
27226;DHT22;14732;51.074;3.788;2023-12-22T07:39:26;10.20;99.90
27226;DHT22;14732;51.074;3.788;2023-12-22T07:41:52;10.10;99.90
27226;DHT22;14732;51.074;3.788;2023-12-22T07:44:18;10.00;99.90
27226;DHT22;14732;51.074;3.788;2023-12-22T07:46:43;10.10;99.90
27226;DHT22;14732;51.074;3.788;2023-12-22T07:49:09;10.10;99.90
27226;DHT22;14732;51.074;3.788;2023-12-22T07:51:36;10.10;99.90
27226;DHT22;14732;51.074;3.788;2023-12-22T07:54:02;10.10;99.90
27226;DHT22;14732;51.074;3.788;2023-12-22T07:56:27;10.10;99.90
27226;DHT22;14732;51.074;3.788;2023-12-22T07:58:53;10.10;99.90
27226;DHT22;14732;51.074;3.788;2023-12-22T08:01:19;10.00;99.90
27226;DHT22;14732;51.074;3.788;2023-12-22T08:03:44;10.10;99.90
27226;DHT22;14732;51.074;3.788;2023-12-22T08:06:10;10.10;99.90
27226;DHT22;14732;51.074;3.788;2023-12-22T08:08:35;10.10;99.90
27226;DHT22;14732;51.074;3.788;2023-12-22T08:11:02;10.10;99.90
27226;DHT22;14732;51.074;3.788;2023-12-22T08:13:27;10.10;99.90
27226;DHT22;14732;51.074;3.788;2023-12-22T08:15:53;10.10;99.90
27226;DHT22;14732;51.074;3.788;2023-12-22T08:18:18;10.10;99.90
27226;DHT22;14732;51.074;3.788;2023-12-22T08:20:44;10.20;99.90
27226;DHT22;14732;51.074;3.788;2023-12-22T08:23:10;10.20;99.90
27226;DHT22;14732;51.074;3.788;2023-12-22T08:25:37;10.20;99.90
27226;DHT22;14732;51.074;3.788;2023-12-22T08:28:04;10.20;99.90
27226;DHT22;14732;51.074;3.788;2023-12-22T08:30:30;10.30;99.90
27226;DHT22;14732;51.074;3.788;2023-12-22T08:32:55;10.30;99.90
27226;DHT22;14732;51.074;3.788;2023-12-22T08:35:21;10.40;99.90
27226;DHT22;14732;51.074;3.788;2023-12-22T08:37:47;10.40;99.90
27226;DHT22;14732;51.074;3.788;2023-12-22T08:40:13;10.40;99.90
27226;DHT22;14732;51.074;3.788;2023-12-22T08:42:38;10.40;99.90
27226;DHT22;14732;51.074;3.788;2023-12-22T08:45:05;10.50;99.90
27226;DHT22;14732;51.074;3.788;2023-12-22T08:47:31;10.50;99.90
27226;DHT22;14732;51.074;3.788;2023-12-22T08:49:56;10.60;99.90
27226;DHT22;14732;51.074;3.788;2023-12-22T08:52:22;10.50;99.90
27226;DHT22;14732;51.074;3.788;2023-12-22T08:54:47;10.60;99.90
27226;DHT22;14732;51.074;3.788;2023-12-22T08:57:13;10.70;99.90
27226;DHT22;14732;51.074;3.788;2023-12-22T08:59:39;10.60;99.90
27226;DHT22;14732;51.074;3.788;2023-12-22T09:02:04;10.50;99.90
27226;DHT22;14732;51.074;3.788;2023-12-22T09:04:31;10.60;99.90
27226;DHT22;14732;51.074;3.788;2023-12-22T09:06:57;10.70;99.90
27226;DHT22;14732;51.074;3.788;2023-12-22T09:09:22;10.60;99.90
27226;DHT22;14732;51.074;3.788;2023-12-22T09:11:49;10.60;99.90
27226;DHT22;14732;51.074;3.788;2023-12-22T09:14:15;10.70;99.90
27226;DHT22;14732;51.074;3.788;2023-12-22T09:16:41;10.70;99.90
27226;DHT22;14732;51.074;3.788;2023-12-22T09:19:08;10.70;99.90
27226;DHT22;14732;51.074;3.788;2023-12-22T09:21:33;10.90;99.90
27226;DHT22;14732;51.074;3.788;2023-12-22T09:23:59;10.90;99.90
27226;DHT22;14732;51.074;3.788;2023-12-22T09:26:25;10.90;99.90
27226;DHT22;14732;51.074;3.788;2023-12-22T09:28:51;10.90;99.90
27226;DHT22;14732;51.074;3.788;2023-12-22T09:31:17;10.90;99.90
27226;DHT22;14732;51.074;3.788;2023-12-22T09:33:43;11.00;99.90
27226;DHT22;14732;51.074;3.788;2023-12-22T09:36:09;11.00;99.90
27226;DHT22;14732;51.074;3.788;2023-12-22T09:38:34;11.00;99.90
27226;DHT22;14732;51.074;3.788;2023-12-22T09:41:02;11.00;99.90
27226;DHT22;14732;51.074;3.788;2023-12-22T09:43:28;11.20;99.90
27226;DHT22;14732;51.074;3.788;2023-12-22T09:45:54;11.20;99.90
27226;DHT22;14732;51.074;3.788;2023-12-22T09:48:21;11.30;99.90
27226;DHT22;14732;51.074;3.788;2023-12-22T09:50:53;11.30;99.90
27226;DHT22;14732;51.074;3.788;2023-12-22T09:53:20;11.30;99.90
27226;DHT22;14732;51.074;3.788;2023-12-22T09:55:46;11.30;99.90
27226;DHT22;14732;51.074;3.788;2023-12-22T09:58:15;11.20;99.90
27226;DHT22;14732;51.074;3.788;2023-12-22T10:00:43;11.30;99.90
27226;DHT22;14732;51.074;3.788;2023-12-22T10:03:10;11.30;99.90
27226;DHT22;14732;51.074;3.788;2023-12-22T10:05:37;11.30;99.90
27226;DHT22;14732;51.074;3.788;2023-12-22T10:08:03;11.30;99.90
27226;DHT22;14732;51.074;3.788;2023-12-22T10:10:30;11.30;99.90
27226;DHT22;14732;51.074;3.788;2023-12-22T10:12:56;11.30;99.90
27226;DHT22;14732;51.074;3.788;2023-12-22T10:15:24;11.30;99.90
27226;DHT22;14732;51.074;3.788;2023-12-22T10:17:53;11.30;99.90
27226;DHT22;14732;51.074;3.788;2023-12-22T10:20:19;11.30;99.90
27226;DHT22;14732;51.074;3.788;2023-12-22T10:22:45;11.30;99.90
27226;DHT22;14732;51.074;3.788;2023-12-22T10:25:14;11.40;99.90
27226;DHT22;14732;51.074;3.788;2023-12-22T10:27:42;11.30;99.90
27226;DHT22;14732;51.074;3.788;2023-12-22T10:30:09;11.40;99.90
27226;DHT22;14732;51.074;3.788;2023-12-22T10:32:40;11.30;99.90
27226;DHT22;14732;51.074;3.788;2023-12-22T10:35:08;11.30;99.90
27226;DHT22;14732;51.074;3.788;2023-12-22T10:37:33;11.30;99.90
27226;DHT22;14732;51.074;3.788;2023-12-22T10:39:59;11.30;99.90
27226;DHT22;14732;51.074;3.788;2023-12-22T10:42:25;11.30;99.90
27226;DHT22;14732;51.074;3.788;2023-12-22T10:44:51;11.30;99.90
27226;DHT22;14732;51.074;3.788;2023-12-22T10:47:17;11.30;99.90
27226;DHT22;14732;51.074;3.788;2023-12-22T10:49:45;11.40;99.90
27226;DHT22;14732;51.074;3.788;2023-12-22T10:52:16;11.40;99.90
27226;DHT22;14732;51.074;3.788;2023-12-22T10:54:43;11.40;99.90
27226;DHT22;14732;51.074;3.788;2023-12-22T10:57:10;11.40;99.90
27226;DHT22;14732;51.074;3.788;2023-12-22T10:59:39;11.40;99.90
27226;DHT22;14732;51.074;3.788;2023-12-22T11:02:10;11.40;99.90
27226;DHT22;14732;51.074;3.788;2023-12-22T11:04:38;11.40;99.90
27226;DHT22;14732;51.074;3.788;2023-12-22T11:07:04;11.40;99.90
27226;DHT22;14732;51.074;3.788;2023-12-22T11:09:32;11.40;99.90
27226;DHT22;14732;51.074;3.788;2023-12-22T11:12:00;11.50;99.90
27226;DHT22;14732;51.074;3.788;2023-12-22T11:14:29;11.60;99.90
27226;DHT22;14732;51.074;3.788;2023-12-22T11:16:57;11.60;99.90
27226;DHT22;14732;51.074;3.788;2023-12-22T11:19:25;11.70;99.90
27226;DHT22;14732;51.074;3.788;2023-12-22T11:21:53;11.70;99.90
27226;DHT22;14732;51.074;3.788;2023-12-22T11:24:20;11.80;99.90
27226;DHT22;14732;51.074;3.788;2023-12-22T11:26:47;11.70;99.90
27226;DHT22;14732;51.074;3.788;2023-12-22T11:29:15;11.70;99.90
27226;DHT22;14732;51.074;3.788;2023-12-22T11:31:45;11.60;99.90
27226;DHT22;14732;51.074;3.788;2023-12-22T11:34:13;11.60;99.90
27226;DHT22;14732;51.074;3.788;2023-12-22T11:36:40;11.60;99.90
27226;DHT22;14732;51.074;3.788;2023-12-22T11:39:06;11.60;99.90
27226;DHT22;14732;51.074;3.788;2023-12-22T11:41:34;11.60;99.90
27226;DHT22;14732;51.074;3.788;2023-12-22T11:44:01;11.70;99.90
27226;DHT22;14732;51.074;3.788;2023-12-22T11:46:29;11.70;99.90
27226;DHT22;14732;51.074;3.788;2023-12-22T11:48:56;11.80;99.90
27226;DHT22;14732;51.074;3.788;2023-12-22T11:51:21;11.90;99.90
27226;DHT22;14732;51.074;3.788;2023-12-22T11:53:47;11.90;99.90
27226;DHT22;14732;51.074;3.788;2023-12-22T11:56:13;12.00;99.90
27226;DHT22;14732;51.074;3.788;2023-12-22T12:01:13;12.00;99.90
27226;DHT22;14732;51.074;3.788;2023-12-22T12:03:59;11.90;99.90
27226;DHT22;14732;51.074;3.788;2023-12-22T12:09:00;12.00;99.90
27226;DHT22;14732;51.074;3.788;2023-12-22T12:14:21;12.00;99.90
27226;DHT22;14732;51.074;3.788;2023-12-22T12:16:47;12.00;99.90
27226;DHT22;14732;51.074;3.788;2023-12-22T12:19:14;11.90;99.90
27226;DHT22;14732;51.074;3.788;2023-12-22T12:21:40;11.90;99.90
27226;DHT22;14732;51.074;3.788;2023-12-22T12:24:05;11.80;99.90
27226;DHT22;14732;51.074;3.788;2023-12-22T12:26:33;11.70;99.90
27226;DHT22;14732;51.074;3.788;2023-12-22T12:28:59;11.60;99.90
27226;DHT22;14732;51.074;3.788;2023-12-22T12:31:37;11.70;99.90
27226;DHT22;14732;51.074;3.788;2023-12-22T12:34:04;11.70;99.90
27226;DHT22;14732;51.074;3.788;2023-12-22T12:36:31;11.70;99.90
27226;DHT22;14732;51.074;3.788;2023-12-22T12:39:08;11.70;99.90
27226;DHT22;14732;51.074;3.788;2023-12-22T12:41:39;11.80;99.90
27226;DHT22;14732;51.074;3.788;2023-12-22T12:44:06;11.80;99.90
27226;DHT22;14732;51.074;3.788;2023-12-22T12:46:36;11.80;99.90
27226;DHT22;14732;51.074;3.788;2023-12-22T12:49:06;11.80;99.90
27226;DHT22;14732;51.074;3.788;2023-12-22T12:51:38;11.80;99.90
27226;DHT22;14732;51.074;3.788;2023-12-22T12:54:08;11.80;99.90
27226;DHT22;14732;51.074;3.788;2023-12-22T12:57:00;11.70;99.90
27226;DHT22;14732;51.074;3.788;2023-12-22T12:59:26;11.60;99.90
27226;DHT22;14732;51.074;3.788;2023-12-22T13:01:51;11.70;99.90
27226;DHT22;14732;51.074;3.788;2023-12-22T13:04:18;11.80;99.90
27226;DHT22;14732;51.074;3.788;2023-12-22T13:06:47;11.80;99.90
27226;DHT22;14732;51.074;3.788;2023-12-22T13:09:13;11.80;99.90
27226;DHT22;14732;51.074;3.788;2023-12-22T13:11:40;11.80;99.90
27226;DHT22;14732;51.074;3.788;2023-12-22T13:14:08;11.80;99.90
27226;DHT22;14732;51.074;3.788;2023-12-22T13:16:34;11.80;99.90
27226;DHT22;14732;51.074;3.788;2023-12-22T13:19:01;11.80;99.90
27226;DHT22;14732;51.074;3.788;2023-12-22T13:21:28;11.80;99.90
27226;DHT22;14732;51.074;3.788;2023-12-22T13:24:17;11.80;99.90
27226;DHT22;14732;51.074;3.788;2023-12-22T13:26:44;11.80;99.90
27226;DHT22;14732;51.074;3.788;2023-12-22T13:29:12;11.90;99.90
27226;DHT22;14732;51.074;3.788;2023-12-22T13:31:41;11.90;99.90
27226;DHT22;14732;51.074;3.788;2023-12-22T13:34:14;11.80;99.90
27226;DHT22;14732;51.074;3.788;2023-12-22T13:36:40;11.80;99.90
27226;DHT22;14732;51.074;3.788;2023-12-22T13:39:08;11.80;99.90
27226;DHT22;14732;51.074;3.788;2023-12-22T13:41:41;11.90;99.90
27226;DHT22;14732;51.074;3.788;2023-12-22T13:44:11;11.90;99.90
27226;DHT22;14732;51.074;3.788;2023-12-22T13:46:37;12.00;99.90
27226;DHT22;14732;51.074;3.788;2023-12-22T13:49:09;11.90;99.90
27226;DHT22;14732;51.074;3.788;2023-12-22T13:51:39;11.90;99.90
27226;DHT22;14732;51.074;3.788;2023-12-22T13:54:05;11.90;99.90
27226;DHT22;14732;51.074;3.788;2023-12-22T13:56:35;11.90;99.90
27226;DHT22;14732;51.074;3.788;2023-12-22T13:59:02;11.90;99.90
27226;DHT22;14732;51.074;3.788;2023-12-22T14:01:28;11.90;99.90
27226;DHT22;14732;51.074;3.788;2023-12-22T14:03:54;11.90;99.90
27226;DHT22;14732;51.074;3.788;2023-12-22T14:06:20;11.90;99.90
27226;DHT22;14732;51.074;3.788;2023-12-22T14:08:46;11.90;99.90
27226;DHT22;14732;51.074;3.788;2023-12-22T14:11:12;11.90;99.90
27226;DHT22;14732;51.074;3.788;2023-12-22T14:13:39;11.80;99.90
27226;DHT22;14732;51.074;3.788;2023-12-22T14:16:06;11.90;99.90
27226;DHT22;14732;51.074;3.788;2023-12-22T14:18:32;12.00;99.90
27226;DHT22;14732;51.074;3.788;2023-12-22T14:20:58;11.90;99.90
27226;DHT22;14732;51.074;3.788;2023-12-22T14:23:24;11.90;99.90
27226;DHT22;14732;51.074;3.788;2023-12-22T14:25:50;11.80;99.90
27226;DHT22;14732;51.074;3.788;2023-12-22T14:28:16;11.90;99.90
27226;DHT22;14732;51.074;3.788;2023-12-22T14:30:41;11.80;99.90
27226;DHT22;14732;51.074;3.788;2023-12-22T14:33:08;11.80;99.90
27226;DHT22;14732;51.074;3.788;2023-12-22T14:35:33;11.80;99.90
27226;DHT22;14732;51.074;3.788;2023-12-22T14:37:59;11.90;99.90
27226;DHT22;14732;51.074;3.788;2023-12-22T14:40:25;11.90;99.90
27226;DHT22;14732;51.074;3.788;2023-12-22T14:42:50;12.00;99.90
27226;DHT22;14732;51.074;3.788;2023-12-22T14:45:16;11.90;99.90
27226;DHT22;14732;51.074;3.788;2023-12-22T14:47:42;11.90;99.90
27226;DHT22;14732;51.074;3.788;2023-12-22T14:50:08;11.90;99.90
27226;DHT22;14732;51.074;3.788;2023-12-22T14:52:34;12.00;99.90
27226;DHT22;14732;51.074;3.788;2023-12-22T14:55:00;12.00;99.90
27226;DHT22;14732;51.074;3.788;2023-12-22T14:57:26;11.90;99.90
27226;DHT22;14732;51.074;3.788;2023-12-22T14:59:54;11.90;99.90
27226;DHT22;14732;51.074;3.788;2023-12-22T15:02:20;11.90;99.90
27226;DHT22;14732;51.074;3.788;2023-12-22T15:04:45;11.90;99.90
27226;DHT22;14732;51.074;3.788;2023-12-22T15:07:15;11.90;99.90
27226;DHT22;14732;51.074;3.788;2023-12-22T15:09:41;12.00;99.90
27226;DHT22;14732;51.074;3.788;2023-12-22T15:12:07;11.90;99.90
27226;DHT22;14732;51.074;3.788;2023-12-22T15:14:33;11.90;99.90
27226;DHT22;14732;51.074;3.788;2023-12-22T15:16:59;11.90;99.90
27226;DHT22;14732;51.074;3.788;2023-12-22T15:19:24;11.90;99.90
27226;DHT22;14732;51.074;3.788;2023-12-22T15:21:51;11.90;99.90
27226;DHT22;14732;51.074;3.788;2023-12-22T15:24:17;11.90;99.90
27226;DHT22;14732;51.074;3.788;2023-12-22T15:26:42;11.90;99.90
27226;DHT22;14732;51.074;3.788;2023-12-22T15:29:08;11.90;99.90
27226;DHT22;14732;51.074;3.788;2023-12-22T15:31:34;11.90;99.90
27226;DHT22;14732;51.074;3.788;2023-12-22T15:34:00;11.90;99.90
27226;DHT22;14732;51.074;3.788;2023-12-22T15:36:26;11.90;99.90
27226;DHT22;14732;51.074;3.788;2023-12-22T15:38:53;11.90;99.90
27226;DHT22;14732;51.074;3.788;2023-12-22T15:41:20;11.80;99.90
27226;DHT22;14732;51.074;3.788;2023-12-22T15:43:46;11.90;99.90